createdAt,value
2023-03-28T00:01:41.961Z,15.57
2023-03-28T00:04:11.808Z,16.45
2023-03-28T00:06:42.144Z,15.38
2023-03-28T00:09:11.340Z,16.70
2023-03-28T00:11:39.986Z,17.70
2023-03-28T00:14:08.453Z,17.58
2023-03-28T00:16:39.462Z,17.30
2023-03-28T00:19:11.899Z,20.50
2023-03-28T00:21:47.065Z,22.63
2023-03-28T00:24:19.262Z,26.52
2023-03-28T00:26:55.644Z,45.22
2023-03-28T00:29:26.267Z,45.85
2023-03-28T00:31:55.098Z,39.50
2023-03-28T00:34:23.709Z,31.30
2023-03-28T00:36:54.206Z,16.23
2023-03-28T00:39:27.892Z,16.00
2023-03-28T00:41:57.637Z,12.13
2023-03-28T00:44:44.497Z,17.40
2023-03-28T00:47:21.779Z,16.50
2023-03-28T00:49:50.681Z,11.93
2023-03-28T00:52:24.305Z,13.32
2023-03-28T00:54:53.958Z,11.73
2023-03-28T00:57:26.391Z,11.40
2023-03-28T00:59:55.220Z,12.02
2023-03-28T01:02:24.703Z,12.63
2023-03-28T01:04:59.728Z,9.68
2023-03-28T01:07:35.439Z,10.95
2023-03-28T01:10:31.574Z,15.07
2023-03-28T01:13:02.486Z,11.07
2023-03-28T01:15:32.656Z,12.25
2023-03-28T01:18:10.853Z,10.43
2023-03-28T01:20:58.520Z,12.20
2023-03-28T01:24:11.659Z,11.80
2023-03-28T01:26:57.284Z,9.23
2023-03-28T01:29:44.603Z,9.77
2023-03-28T01:32:24.379Z,11.48
2023-03-28T01:35:12.812Z,10.02
2023-03-28T01:38:13.314Z,11.23
2023-03-28T01:40:52.154Z,8.85
2023-03-28T01:43:42.093Z,9.27
2023-03-28T01:46:20.052Z,9.38
2023-03-28T01:49:03.841Z,9.38
2023-03-28T01:51:46.332Z,8.88
2023-03-28T01:54:44.082Z,6.97
2023-03-28T01:57:29.802Z,9.77
2023-03-28T02:00:13.545Z,10.82
2023-03-28T02:03:15.253Z,8.00
2023-03-28T02:05:54.390Z,8.52
2023-03-28T02:08:29.309Z,8.73
2023-03-28T02:11:17.149Z,5.78
2023-03-28T02:14:12.421Z,6.88
2023-03-28T02:17:16.118Z,7.18
2023-03-28T02:20:11.904Z,5.93
2023-03-28T02:23:09.228Z,9.38
2023-03-28T02:30:51.788Z,4.57
2023-03-28T02:32:11.494Z,6.35
2023-03-28T02:33:49.540Z,5.68
2023-03-28T02:36:43.828Z,4.03
2023-03-28T02:39:24.311Z,3.72
2023-03-28T02:42:37.548Z,3.40
2023-03-28T02:45:36.961Z,3.55
2023-03-28T02:48:17.298Z,4.38
2023-03-28T02:51:12.919Z,3.33
2023-03-28T02:53:53.593Z,2.67
2023-03-28T02:57:01.629Z,2.85
2023-03-28T02:59:52.842Z,3.22
2023-03-28T03:02:22.553Z,2.97
2023-03-28T03:04:51.974Z,3.08
2023-03-28T03:07:20.571Z,3.35
2023-03-28T03:09:54.115Z,3.45
2023-03-28T03:12:24.145Z,2.90
2023-03-28T03:15:01.266Z,3.17
2023-03-28T03:17:48.529Z,2.53
2023-03-28T03:20:23.400Z,2.80
2023-03-28T03:22:51.969Z,3.95
2023-03-28T03:25:20.717Z,2.47
2023-03-28T03:28:18.851Z,3.28
2023-03-28T03:30:49.568Z,2.17
2023-03-28T03:33:37.877Z,3.50
2023-03-28T03:36:10.184Z,3.55
2023-03-28T03:38:38.851Z,2.00
2023-03-28T03:41:08.809Z,3.85
2023-03-28T03:43:37.144Z,4.00
2023-03-28T03:46:06.225Z,3.67
2023-03-28T03:48:34.693Z,3.70
2023-03-28T03:51:04.106Z,2.40
2023-03-28T03:53:35.019Z,3.33
2023-03-28T03:56:09.192Z,4.32
2023-03-28T03:59:04.090Z,3.85
2023-03-28T04:01:35.565Z,3.60
2023-03-28T04:04:24.724Z,2.70
2023-03-28T04:07:08.846Z,2.70
2023-03-28T04:09:37.735Z,2.40
2023-03-28T04:12:08.944Z,3.47
2023-03-28T04:14:56.374Z,2.78
2023-03-28T04:17:37.928Z,2.70
2023-03-28T04:20:13.961Z,4.00
2023-03-28T04:23:06.014Z,4.07
2023-03-28T04:25:36.119Z,4.68
2023-03-28T04:28:13.239Z,3.90
2023-03-28T04:31:13.882Z,4.63
2023-03-28T04:34:03.595Z,6.07
2023-03-28T04:36:34.510Z,3.97
2023-03-28T04:39:05.842Z,3.63
2023-03-28T04:42:12.265Z,3.55
2023-03-28T04:45:04.864Z,3.85
2023-03-28T04:47:33.503Z,3.13
2023-03-28T04:50:02.389Z,3.03
2023-03-28T04:52:36.291Z,4.50
2023-03-28T04:55:31.698Z,4.28
2023-03-28T04:58:03.722Z,3.45
2023-03-28T05:00:33.215Z,3.80
2023-03-28T05:03:06.930Z,2.83
2023-03-28T05:05:43.176Z,4.45
2023-03-28T05:08:16.414Z,3.10
2023-03-28T05:10:46.204Z,2.92
2023-03-28T05:13:15.078Z,3.45
2023-03-28T05:15:49.398Z,3.22
2023-03-28T05:18:47.463Z,3.45
2023-03-28T05:21:17.449Z,1.75
2023-03-28T05:23:51.268Z,5.60
2023-03-28T05:26:23.395Z,3.63
2023-03-28T05:28:52.811Z,1.73
2023-03-28T05:31:22.571Z,1.70
2023-03-28T05:34:04.664Z,3.10
2023-03-28T05:36:41.845Z,2.90
2023-03-28T05:39:21.138Z,3.53
2023-03-28T05:41:51.074Z,4.22
2023-03-28T05:44:19.594Z,2.47
2023-03-28T05:47:14.273Z,6.68
2023-03-28T05:49:43.346Z,2.72
2023-03-28T05:52:11.942Z,3.58
2023-03-28T05:54:42.176Z,4.32
2023-03-28T05:57:21.060Z,11.13
2023-03-28T05:59:50.093Z,11.75
2023-03-28T06:02:24.592Z,4.00
2023-03-28T06:04:58.659Z,4.25
2023-03-28T06:07:41.531Z,4.88
2023-03-28T06:10:14.406Z,14.93
2023-03-28T06:12:51.765Z,20.23
2023-03-28T06:15:20.307Z,12.73
2023-03-28T06:17:51.792Z,7.30
2023-03-28T06:20:20.485Z,13.48
2023-03-28T06:22:49.864Z,25.52
2023-03-28T06:25:18.264Z,17.52
2023-03-28T06:27:46.938Z,40.63
2023-03-28T06:30:15.756Z,3.08
2023-03-28T06:32:49.253Z,6.65
2023-03-28T06:35:18.496Z,23.30
2023-03-28T06:37:47.227Z,22.95
2023-03-28T06:40:19.685Z,2.33
2023-03-28T06:42:48.484Z,37.00
2023-03-28T06:45:31.274Z,4.25
2023-03-28T06:48:05.023Z,3.15
2023-03-28T06:50:51.951Z,12.73
2023-03-28T06:53:22.821Z,6.78
2023-03-28T06:55:53.001Z,3.83
2023-03-28T06:58:23.498Z,3.17
2023-03-28T07:01:00.678Z,12.63
2023-03-28T07:03:44.532Z,7.38
2023-03-28T07:06:18.166Z,19.90
2023-03-28T07:08:47.380Z,2.22
2023-03-28T07:11:18.039Z,33.60
2023-03-28T07:13:51.101Z,31.60
2023-03-28T07:16:21.192Z,10.90
2023-03-28T07:18:51.033Z,9.13
2023-03-28T07:21:28.085Z,6.45
2023-03-28T07:23:59.604Z,3.95
2023-03-28T07:26:34.874Z,4.95
2023-03-28T07:29:03.816Z,1.48
2023-03-28T07:31:32.795Z,30.85
2023-03-28T07:34:01.957Z,2.15
2023-03-28T07:36:30.658Z,3.58
2023-03-28T07:39:09.201Z,3.75
2023-03-28T07:41:37.802Z,5.53
2023-03-28T07:44:06.874Z,2.20
2023-03-28T07:46:37.686Z,2.92
2023-03-28T07:49:07.077Z,18.35
2023-03-28T07:51:36.370Z,15.32
2023-03-28T07:54:05.306Z,6.30
2023-03-28T07:56:33.852Z,1.83
2023-03-28T07:59:16.879Z,2.25
2023-03-28T08:01:48.020Z,1.80
2023-03-28T08:04:17.060Z,5.00
2023-03-28T08:07:15.847Z,1.80
2023-03-28T08:09:49.462Z,4.53
2023-03-28T08:12:22.888Z,1.25
2023-03-28T08:14:52.306Z,1.35
2023-03-28T08:17:23.967Z,2.20
2023-03-28T08:19:54.184Z,3.55
2023-03-28T08:22:31.503Z,8.10
2023-03-28T08:25:26.393Z,1.42
2023-03-28T08:27:56.570Z,1.70
2023-03-28T08:30:25.406Z,2.75
2023-03-28T08:32:59.460Z,2.42
2023-03-28T08:35:28.098Z,2.90
2023-03-28T08:40:29.527Z,3.40
2023-03-28T08:43:39.093Z,8.10
2023-03-28T08:46:14.036Z,4.78
2023-03-28T08:48:46.032Z,3.90
2023-03-28T08:51:24.730Z,10.02
2023-03-28T08:54:21.896Z,2.40
2023-03-28T08:56:57.384Z,3.78
2023-03-28T08:59:33.327Z,2.10
2023-03-28T09:02:02.482Z,1.88
2023-03-28T09:04:37.593Z,1.80
2023-03-28T09:07:59.980Z,1.80
2023-03-28T09:10:43.782Z,2.22
2023-03-28T09:14:00.514Z,1.48
2023-03-28T09:16:59.161Z,5.38
2023-03-28T09:19:48.407Z,1.45
2023-03-28T09:23:02.947Z,1.30
2023-03-28T09:26:01.795Z,2.95
2023-03-28T09:28:45.365Z,3.95
2023-03-28T09:31:18.372Z,3.60
2023-03-28T09:33:49.394Z,4.35
2023-03-28T09:36:45.430Z,1.55
2023-03-28T09:39:36.923Z,1.38
2023-03-28T09:42:26.246Z,1.20
2023-03-28T09:45:30.503Z,3.50
2023-03-28T09:47:59.912Z,3.95
2023-03-28T09:50:34.384Z,2.38
2023-03-28T09:53:04.229Z,3.78
2023-03-28T09:55:35.520Z,2.28
2023-03-28T09:58:10.383Z,1.75
2023-03-28T10:00:57.494Z,9.77
2023-03-28T10:04:01.870Z,2.15
2023-03-28T10:06:50.090Z,1.13
2023-03-28T10:09:28.579Z,2.20
2023-03-28T10:12:10.618Z,1.70
2023-03-28T10:14:43.111Z,1.08
2023-03-28T10:17:36.934Z,2.28
2023-03-28T10:20:21.836Z,13.77
2023-03-28T10:22:56.648Z,3.53
2023-03-28T10:25:37.631Z,3.30
2023-03-28T10:28:08.282Z,3.25
2023-03-28T10:30:37.980Z,2.53
2023-03-28T10:33:23.780Z,1.85
2023-03-28T10:36:12.863Z,3.00
2023-03-28T10:38:48.396Z,2.05
2023-03-28T10:42:11.858Z,4.03
2023-03-28T10:47:36.663Z,3.75
2023-03-28T10:50:22.773Z,1.20
2023-03-28T10:53:18.394Z,2.65
2023-03-28T10:56:16.704Z,2.83
2023-03-28T10:59:13.847Z,1.50
2023-03-28T11:01:53.136Z,1.75
2023-03-28T11:04:31.247Z,2.17
2023-03-28T11:07:19.038Z,1.23
2023-03-28T11:10:59.447Z,0.93
2023-03-28T11:13:44.346Z,1.83
2023-03-28T11:16:21.886Z,6.20
2023-03-28T11:20:00.456Z,1.63
2023-03-28T11:23:08.984Z,3.78
2023-03-28T11:26:08.581Z,3.38
2023-03-28T11:29:40.492Z,2.75
2023-03-28T11:32:24.355Z,3.08
2023-03-28T11:35:04.947Z,1.45
2023-03-28T11:38:07.224Z,3.33
2023-03-28T11:40:53.094Z,2.75
2023-03-28T11:44:11.773Z,3.60
2023-03-28T11:47:28.775Z,2.00
2023-03-28T11:50:56.649Z,2.90
2023-03-28T11:54:11.941Z,3.95
2023-03-28T12:00:01.790Z,2.50
2023-03-28T12:02:49.111Z,1.42
2023-03-28T12:05:22.959Z,2.38
2023-03-28T12:08:12.759Z,2.47
2023-03-28T12:10:49.361Z,1.33
2023-03-28T12:13:58.374Z,3.10
2023-03-28T12:16:42.087Z,2.28
2023-03-28T12:19:28.623Z,7.35
2023-03-28T12:22:30.886Z,3.55
2023-03-28T12:25:46.332Z,5.22
2023-03-28T12:28:23.603Z,3.63
2023-03-28T12:31:10.691Z,2.10
2023-03-28T12:34:06.916Z,2.00
2023-03-28T12:40:27.381Z,2.65
2023-03-28T12:43:01.692Z,3.75
2023-03-28T12:45:48.415Z,2.70
2023-03-28T12:48:45.922Z,3.40
2023-03-28T12:51:25.495Z,2.92
2023-03-28T12:54:25.357Z,5.05
2023-03-28T13:01:27.539Z,1.65
2023-03-28T13:04:32.165Z,2.08
2023-03-28T13:07:58.329Z,2.17
2023-03-28T13:10:43.269Z,1.42
2023-03-28T13:13:41.377Z,1.88
2023-03-28T13:16:23.643Z,4.18
2023-03-28T13:19:21.694Z,4.15
2023-03-28T13:22:04.548Z,2.63
2023-03-28T13:24:38.915Z,1.83
2023-03-28T13:27:31.060Z,3.58
2023-03-28T13:30:10.868Z,9.73
2023-03-28T13:32:57.673Z,1.15
2023-03-28T13:35:55.568Z,3.00
2023-03-28T13:38:27.100Z,2.58
2023-03-28T13:41:12.552Z,1.10
2023-03-28T13:43:57.646Z,1.33
2023-03-28T13:46:46.027Z,2.33
2023-03-28T13:49:19.345Z,3.40
2023-03-28T13:52:16.716Z,2.65
2023-03-28T13:54:46.459Z,3.08
2023-03-28T13:57:19.133Z,3.30
2023-03-28T14:00:05.034Z,2.92
2023-03-28T14:02:52.402Z,2.05
2023-03-28T14:05:27.215Z,1.38
2023-03-28T14:08:01.929Z,2.03
2023-03-28T14:10:33.886Z,3.20
2023-03-28T14:13:06.376Z,3.55
2023-03-28T14:15:40.001Z,4.65
2023-03-28T14:18:17.983Z,2.10
2023-03-28T14:20:47.813Z,1.90
2023-03-28T14:23:56.729Z,7.00
2023-03-28T14:27:05.465Z,3.72
2023-03-28T14:29:33.844Z,16.50
2023-03-28T14:32:07.964Z,4.90
2023-03-28T14:34:47.252Z,1.80
2023-03-28T14:37:18.644Z,1.65
2023-03-28T14:39:59.492Z,1.10
2023-03-28T14:42:28.734Z,2.45
2023-03-28T14:44:57.289Z,3.78
2023-03-28T14:47:30.190Z,3.45
2023-03-28T14:52:44.770Z,2.53
2023-03-28T14:55:39.118Z,1.70
2023-03-28T14:58:27.734Z,3.17
2023-03-28T15:01:02.042Z,2.30
2023-03-28T15:03:35.304Z,2.90
2023-03-28T15:06:04.218Z,1.20
2023-03-28T15:08:36.932Z,2.92
2023-03-28T15:11:11.421Z,1.60
2023-03-28T15:13:46.596Z,2.28
2023-03-28T15:16:26.256Z,1.92
2023-03-28T15:19:07.176Z,1.45
2023-03-28T15:21:42.099Z,1.33
2023-03-28T15:24:15.732Z,2.60
2023-03-28T15:27:17.699Z,1.45
2023-03-28T15:29:46.433Z,2.72
2023-03-28T15:32:20.624Z,8.40
2023-03-28T15:35:01.620Z,2.75
2023-03-28T15:37:41.174Z,5.97
2023-03-28T15:40:18.928Z,26.80
2023-03-28T15:42:49.862Z,12.20
2023-03-28T15:45:28.662Z,4.17
2023-03-28T15:47:57.535Z,4.35
2023-03-28T15:50:36.296Z,5.88
2023-03-28T15:53:07.366Z,1.00
2023-03-28T15:55:40.980Z,1.58
2023-03-28T15:58:19.555Z,1.40
2023-03-28T16:00:51.928Z,1.90
2023-03-28T16:03:20.770Z,12.55
2023-03-28T16:05:52.358Z,2.58
2023-03-28T16:08:23.891Z,2.73
2023-03-28T16:13:41.089Z,3.10
2023-03-28T16:16:30.546Z,2.30
2023-03-28T16:19:21.127Z,2.58
2023-03-28T16:21:49.897Z,5.80
2023-03-28T16:24:20.249Z,8.38
2023-03-28T16:26:49.702Z,4.05
2023-03-28T16:29:18.218Z,2.13
2023-03-28T16:31:46.919Z,3.90
2023-03-28T16:34:15.376Z,8.18
2023-03-28T16:36:44.487Z,4.82
2023-03-28T16:39:12.765Z,8.85
2023-03-28T16:41:41.681Z,6.85
2023-03-28T16:44:10.022Z,1.42
2023-03-28T16:46:38.888Z,11.95
2023-03-28T16:49:10.252Z,6.20
2023-03-28T16:51:39.084Z,4.65
2023-03-28T16:54:10.348Z,1.58
2023-03-28T16:56:39.019Z,1.60
2023-03-28T16:59:08.385Z,3.72
2023-03-28T17:01:37.571Z,3.08
2023-03-28T17:04:07.636Z,4.65
2023-03-28T17:06:36.795Z,2.90
2023-03-28T17:09:05.799Z,2.95
2023-03-28T17:11:59.961Z,3.28
2023-03-28T17:14:28.210Z,3.38
2023-03-28T17:16:57.078Z,4.43
2023-03-28T17:19:26.219Z,7.50
2023-03-28T17:21:56.832Z,6.32
2023-03-28T17:24:25.253Z,4.03
2023-03-28T17:26:54.170Z,4.32
2023-03-28T17:29:26.949Z,3.83
2023-03-28T17:31:58.579Z,4.68
2023-03-28T17:34:26.996Z,7.30
2023-03-28T17:36:56.301Z,9.90
2023-03-28T17:39:24.569Z,8.43
2023-03-28T17:41:53.256Z,8.40
2023-03-28T17:44:21.914Z,7.80
2023-03-28T17:46:54.548Z,9.20
2023-03-28T17:52:02.279Z,10.90
